Time;durP1;ratioP1;P1;durP2;ratioP2;P2;SDS_P1;SDS_P2;PMS_P1;PMS_P2;Temp;Humidity;BMP_temperature;BMP_pressure;BME280_temperature;BME280_humidity;BME280_pressure;Samples;Min_cycle;Max_cycle;Signal;HPM_P1;HPM_P2
2023/02/15 00:01:08;;;;;;;100.60;70.00;;;;;;;;;;109732;1249;59569;-81
2023/02/15 00:03:34;;;;;;;98.50;65.80;;;;;;;;;;109741;1251;60078;-79
2023/02/15 00:06:01;;;;;;;100.40;69.70;;;;;;;;;;109781;1251;58938;-81
2023/02/15 00:08:28;;;;;;;103.60;71.10;;;;;;;;;;109470;1251;58948;-81
2023/02/15 00:11:08;;;;;;;92.80;65.30;;;;;;;;;;109748;1251;61905;-80
2023/02/15 00:13:35;;;;;;;78.30;52.60;;;;;;;;;;109832;1251;58995;-80
2023/02/15 00:16:03;;;;;;;46.20;35.30;;;;;;;;;;109769;1251;60997;-79
2023/02/15 00:18:30;;;;;;;63.20;45.90;;;;;;;;;;109355;1254;59132;-80
2023/02/15 00:20:57;;;;;;;84.70;58.30;;;;;;;;;;109735;1253;58864;-81
2023/02/15 00:23:24;;;;;;;83.80;56.00;;;;;;;;;;109749;1250;62229;-79
2023/02/15 00:25:50;;;;;;;84.60;57.50;;;;;;;;;;109524;1251;58906;-80
2023/02/15 00:28:17;;;;;;;76.00;55.50;;;;;;;;;;109738;1251;60972;-80
2023/02/15 00:30:43;;;;;;;76.70;57.70;;;;;;;;;;109499;1251;59086;-79
2023/02/15 00:33:10;;;;;;;82.20;57.80;;;;;;;;;;109754;1250;58859;-81
2023/02/15 00:35:36;;;;;;;83.50;59.20;;;;;;;;;;109757;1250;63232;-80
2023/02/15 00:38:03;;;;;;;76.80;54.70;;;;;;;;;;109775;1251;59020;-81
2023/02/15 00:40:29;;;;;;;82.20;56.00;;;;;;;;;;109774;1249;59894;-80
2023/02/15 00:42:58;;;;;;;75.90;54.80;;;;;;;;;;109761;1251;59064;-80
2023/02/15 00:45:24;;;;;;;75.50;53.70;;;;;;;;;;109772;1251;59330;-80
2023/02/15 00:47:51;;;;;;;62.60;45.60;;;;;;;;;;109745;1251;62082;-80
2023/02/15 00:50:18;;;;;;;61.30;48.60;;;;;;;;;;109757;1251;59633;-81
2023/02/15 00:52:44;;;;;;;72.00;50.20;;;;;;;;;;109751;1250;59898;-78
2023/02/15 00:55:11;;;;;;;75.40;53.90;;;;;;;;;;109752;1250;58937;-80
2023/02/15 00:57:38;;;;;;;68.10;49.90;;;;;;;;;;109758;1250;58927;-80
2023/02/15 01:00:05;;;;;;;60.30;46.00;;;;;;;;;;109718;1251;62999;-78
2023/02/15 01:02:31;;;;;;;60.80;44.90;;;;;;;;;;109427;1254;59080;-80
2023/02/15 01:04:58;;;;;;;57.70;40.70;;;;;;;;;;109426;1254;59781;-79
2023/02/15 01:07:25;;;;;;;68.00;47.80;;;;;;;;;;109526;1254;59038;-78
2023/02/15 01:09:51;;;;;;;60.00;44.90;;;;;;;;;;109615;1254;58830;-79
2023/02/15 01:12:18;;;;;;;63.40;46.50;;;;;;;;;;109552;1254;62098;-80
2023/02/15 01:14:44;;;;;;;64.50;47.00;;;;;;;;;;109546;1254;59016;-80
2023/02/15 01:17:11;;;;;;;58.30;45.20;;;;;;;;;;109419;1254;59663;-80
2023/02/15 01:19:37;;;;;;;60.90;44.40;;;;;;;;;;109215;1253;59022;-81
2023/02/15 01:22:04;;;;;;;62.60;45.10;;;;;;;;;;109451;1253;59309;-80
2023/02/15 01:24:30;;;;;;;61.70;44.20;;;;;;;;;;109456;1254;63271;-80
2023/02/15 01:26:57;;;;;;;63.70;45.80;;;;;;;;;;109444;1254;59238;-80
2023/02/15 01:29:32;;;;;;;61.70;45.40;;;;;;;;;;109362;1254;59788;-81
2023/02/15 01:31:59;;;;;;;63.70;46.60;;;;;;;;;;109387;1254;59354;-80
2023/02/15 01:34:26;;;;;;;66.80;49.70;;;;;;;;;;109715;1249;59167;-80
2023/02/15 01:36:52;;;;;;;57.80;43.40;;;;;;;;;;109719;1251;63061;-78
2023/02/15 01:39:19;;;;;;;48.50;39.90;;;;;;;;;;109812;1251;59211;-79
2023/02/15 01:41:45;;;;;;;44.50;33.90;;;;;;;;;;109510;1251;59863;-80
2023/02/15 01:44:30;;;;;;;51.10;40.60;;;;;;;;;;109756;1251;58918;-81
2023/02/15 01:46:57;;;;;;;54.90;39.20;;;;;;;;;;109749;1251;59683;-79
2023/02/15 01:49:25;;;;;;;46.90;36.40;;;;;;;;;;109734;1251;63069;-79
2023/02/15 01:51:52;;;;;;;37.10;30.00;;;;;;;;;;109600;1251;58979;-80
2023/02/15 01:54:24;;;;;;;34.50;27.50;;;;;;;;;;109746;1250;59547;-80
2023/02/15 01:56:50;;;;;;;43.80;35.90;;;;;;;;;;109768;1250;58995;-80
2023/02/15 01:59:20;;;;;;;54.20;42.10;;;;;;;;;;109732;1249;59066;-80
2023/02/15 02:01:46;;;;;;;41.80;32.00;;;;;;;;;;109751;1250;62108;-80
2023/02/15 02:04:20;;;;;;;40.60;29.40;;;;;;;;;;109742;1250;58960;-79
2023/02/15 02:06:47;;;;;;;32.20;25.80;;;;;;;;;;109742;1250;60998;-79
2023/02/15 02:09:14;;;;;;;30.90;25.60;;;;;;;;;;109462;1250;59092;-79
2023/02/15 02:11:42;;;;;;;33.30;26.00;;;;;;;;;;109802;1250;59009;-79
2023/02/15 02:14:08;;;;;;;34.80;26.80;;;;;;;;;;109759;1251;62944;-78
2023/02/15 02:16:38;;;;;;;37.50;28.10;;;;;;;;;;109778;1250;59464;-80
2023/02/15 02:19:04;;;;;;;30.50;24.20;;;;;;;;;;109479;1250;60862;-80
2023/02/15 02:21:31;;;;;;;36.10;28.10;;;;;;;;;;109688;1249;59352;-80
2023/02/15 02:24:23;;;;;;;32.50;26.50;;;;;;;;;;109629;1249;58866;-79
2023/02/15 02:27:02;;;;;;;37.10;29.30;;;;;;;;;;109623;1251;62032;-80
2023/02/15 02:29:44;;;;;;;38.50;30.20;;;;;;;;;;109762;1251;59438;-80
2023/02/15 02:32:37;;;;;;;38.70;29.40;;;;;;;;;;109725;1251;60855;-80
2023/02/15 02:35:10;;;;;;;37.20;27.80;;;;;;;;;;109582;1250;58926;-79
2023/02/15 02:37:42;;;;;;;32.60;27.90;;;;;;;;;;109471;1254;59040;-80
2023/02/15 02:40:27;;;;;;;36.40;29.00;;;;;;;;;;109779;1250;63271;-79
2023/02/15 02:43:11;;;;;;;33.40;26.70;;;;;;;;;;109782;1250;59189;-80
2023/02/15 02:45:44;;;;;;;32.60;25.40;;;;;;;;;;109766;1249;60802;-79
2023/02/15 02:48:31;;;;;;;35.20;27.90;;;;;;;;;;109726;1250;59026;-80
2023/02/15 02:50:58;;;;;;;38.30;27.30;;;;;;;;;;109797;1251;59021;-80
2023/02/15 02:53:26;;;;;;;32.80;25.80;;;;;;;;;;109809;1250;63272;-80
2023/02/15 02:56:06;;;;;;;30.80;25.70;;;;;;;;;;109763;1250;58928;-80
2023/02/15 02:58:39;;;;;;;35.00;27.10;;;;;;;;;;109745;1251;60919;-79
2023/02/15 03:01:10;;;;;;;34.00;27.40;;;;;;;;;;109723;1249;58994;-80
2023/02/15 03:03:38;;;;;;;38.10;30.80;;;;;;;;;;109770;1250;59095;-79
2023/02/15 03:06:08;;;;;;;39.10;30.60;;;;;;;;;;109737;1249;62067;-81
2023/02/15 03:08:41;;;;;;;38.80;31.60;;;;;;;;;;109625;1250;59218;-79
2023/02/15 03:11:08;;;;;;;34.10;27.70;;;;;;;;;;109745;1250;61046;-81
2023/02/15 03:13:35;;;;;;;35.30;27.40;;;;;;;;;;109760;1249;58878;-81
2023/02/15 03:18:57;;;;;;;36.10;28.20;;;;;;;;;;109762;1250;62214;-80
2023/02/15 03:21:27;;;;;;;38.70;30.60;;;;;;;;;;109759;1250;59164;-80
2023/02/15 03:23:56;;;;;;;35.70;26.90;;;;;;;;;;109799;1250;59891;-81
2023/02/15 03:26:24;;;;;;;34.80;28.80;;;;;;;;;;109714;1250;59086;-81
2023/02/15 03:28:52;;;;;;;36.30;28.40;;;;;;;;;;109823;1250;58899;-80
2023/02/15 03:31:21;;;;;;;32.70;27.00;;;;;;;;;;109742;1250;62036;-81
2023/02/15 03:34:08;;;;;;;34.30;26.10;;;;;;;;;;109623;1251;58974;-80
2023/02/15 03:36:34;;;;;;;37.20;26.80;;;;;;;;;;109641;1250;61058;-81
2023/02/15 03:39:23;;;;;;;35.30;27.70;;;;;;;;;;109728;1250;59017;-81
2023/02/15 03:42:10;;;;;;;35.60;27.70;;;;;;;;;;109604;1249;59056;-79
2023/02/15 03:44:45;;;;;;;34.00;25.20;;;;;;;;;;109758;1250;63093;-79
2023/02/15 03:47:15;;;;;;;35.10;27.10;;;;;;;;;;109723;1250;58850;-81
2023/02/15 03:49:45;;;;;;;34.80;28.50;;;;;;;;;;109768;1250;60877;-79
2023/02/15 03:52:13;;;;;;;33.70;26.80;;;;;;;;;;109636;1250;59378;-80
2023/02/15 03:54:43;;;;;;;36.90;28.60;;;;;;;;;;109781;1250;58906;-80
2023/02/15 04:02:49;;;;;;;36.40;28.00;;;;;;;;;;109530;1251;59007;-79
2023/02/15 04:05:16;;;;;;;42.30;29.60;;;;;;;;;;109730;1249;59010;-79
2023/02/15 04:07:42;;;;;;;38.00;28.20;;;;;;;;;;109767;1250;59042;-80
2023/02/15 04:12:54;;;;;;;38.70;29.10;;;;;;;;;;109557;1250;59098;-80
2023/02/15 04:18:05;;;;;;;40.20;30.60;;;;;;;;;;109773;1250;59034;-80
2023/02/15 04:26:04;;;;;;;44.30;31.60;;;;;;;;;;109733;1249;58940;-81
2023/02/15 04:28:31;;;;;;;38.30;29.60;;;;;;;;;;109758;1249;59782;-81
2023/02/15 04:30:58;;;;;;;42.70;32.20;;;;;;;;;;109756;1250;58910;-80
2023/02/15 04:33:24;;;;;;;42.40;32.30;;;;;;;;;;109752;1249;59003;-77
2023/02/15 04:35:51;;;;;;;42.50;31.60;;;;;;;;;;109732;1249;62333;-80
2023/02/15 04:38:17;;;;;;;45.70;31.40;;;;;;;;;;109736;1250;59047;-80
2023/02/15 04:40:44;;;;;;;40.70;30.90;;;;;;;;;;109741;1249;60811;-80
2023/02/15 04:43:10;;;;;;;43.20;32.30;;;;;;;;;;109776;1250;58984;-80
2023/02/15 04:45:37;;;;;;;44.80;32.60;;;;;;;;;;109752;1249;58889;-81
2023/02/15 04:48:03;;;;;;;45.10;33.50;;;;;;;;;;109722;1250;62077;-80
2023/02/15 04:50:30;;;;;;;43.80;32.10;;;;;;;;;;109765;1250;59054;-80
2023/02/15 04:52:56;;;;;;;44.70;34.80;;;;;;;;;;109704;1250;60793;-81
2023/02/15 04:55:23;;;;;;;49.10;37.50;;;;;;;;;;109511;1250;58993;-79
2023/02/15 04:57:50;;;;;;;47.40;35.10;;;;;;;;;;109735;1249;59026;-80
2023/02/15 05:00:16;;;;;;;46.50;35.00;;;;;;;;;;109717;1250;62957;-80
2023/02/15 05:02:43;;;;;;;46.60;34.80;;;;;;;;;;109721;1249;58953;-79
2023/02/15 05:05:12;;;;;;;48.30;34.50;;;;;;;;;;109732;1249;60979;-80
2023/02/15 05:07:39;;;;;;;46.30;34.10;;;;;;;;;;109724;1250;59292;-80
2023/02/15 05:10:06;;;;;;;43.80;33.80;;;;;;;;;;109744;1250;58997;-79
2023/02/15 05:12:32;;;;;;;44.90;33.20;;;;;;;;;;109778;1250;60749;-80
2023/02/15 05:14:59;;;;;;;47.40;33.60;;;;;;;;;;109708;1249;58950;-80
2023/02/15 05:17:25;;;;;;;46.10;35.10;;;;;;;;;;109679;1250;60964;-81
2023/02/15 05:19:52;;;;;;;43.60;32.10;;;;;;;;;;109878;1250;58943;-80
2023/02/15 05:22:18;;;;;;;46.50;34.70;;;;;;;;;;109825;1250;59030;-82
2023/02/15 05:30:15;;;;;;;43.70;33.70;;;;;;;;;;109517;1250;59597;-80
2023/02/15 05:32:41;;;;;;;43.50;31.90;;;;;;;;;;109705;1250;59001;-81
2023/02/15 05:35:12;;;;;;;44.00;33.90;;;;;;;;;;109759;1249;59027;-80
2023/02/15 05:37:39;;;;;;;44.40;33.00;;;;;;;;;;109696;1250;63020;-80
2023/02/15 05:40:05;;;;;;;46.00;33.50;;;;;;;;;;109727;1250;59146;-78
2023/02/15 05:42:32;;;;;;;40.20;31.80;;;;;;;;;;109446;1249;59843;-80
2023/02/15 05:44:58;;;;;;;43.00;32.20;;;;;;;;;;109760;1250;58929;-80
2023/02/15 05:47:25;;;;;;;42.50;31.80;;;;;;;;;;109607;1249;59038;-82
2023/02/15 05:49:51;;;;;;;41.80;30.80;;;;;;;;;;108985;1250;1002179;-80
2023/02/15 05:52:19;;;;;;;43.80;32.80;;;;;;;;;;109778;1249;58850;-79
2023/02/15 05:54:45;;;;;;;43.10;32.80;;;;;;;;;;109680;1249;61012;-80
2023/02/15 05:57:12;;;;;;;48.30;34.50;;;;;;;;;;109760;1249;59381;-80
2023/02/15 05:59:38;;;;;;;45.70;34.70;;;;;;;;;;109709;1250;59036;-79
2023/02/15 06:02:06;;;;;;;39.90;31.00;;;;;;;;;;109732;1250;63066;-81
2023/02/15 06:04:32;;;;;;;44.40;33.10;;;;;;;;;;109788;1249;59147;-81
2023/02/15 06:06:59;;;;;;;45.40;33.40;;;;;;;;;;109749;1250;61164;-80
2023/02/15 06:09:25;;;;;;;40.20;33.40;;;;;;;;;;109724;1250;59008;-82
2023/02/15 06:11:52;;;;;;;40.70;32.70;;;;;;;;;;109732;1249;59182;-81
2023/02/15 06:14:19;;;;;;;39.70;31.30;;;;;;;;;;109714;1250;62097;-81
2023/02/15 06:16:45;;;;;;;39.70;28.60;;;;;;;;;;109749;1249;58853;-81
2023/02/15 06:19:12;;;;;;;38.30;29.30;;;;;;;;;;109735;1249;59763;-79
2023/02/15 06:21:38;;;;;;;39.40;29.80;;;;;;;;;;109703;1250;58999;-80
2023/02/15 06:24:05;;;;;;;37.40;28.50;;;;;;;;;;109759;1250;59384;-81
2023/02/15 06:26:31;;;;;;;42.00;32.50;;;;;;;;;;109749;1250;62113;-80
2023/02/15 06:28:58;;;;;;;47.30;33.60;;;;;;;;;;109750;1250;59060;-80
2023/02/15 06:31:24;;;;;;;45.90;34.30;;;;;;;;;;109711;1250;60960;-80
2023/02/15 06:33:51;;;;;;;49.40;35.20;;;;;;;;;;109728;1249;58991;-81
2023/02/15 06:36:18;;;;;;;56.20;40.00;;;;;;;;;;109711;1250;59040;-80
2023/02/15 06:38:44;;;;;;;61.60;41.90;;;;;;;;;;109786;1250;62940;-79
2023/02/15 06:41:11;;;;;;;57.30;39.80;;;;;;;;;;109782;1250;59230;-81
2023/02/15 06:43:37;;;;;;;55.40;37.20;;;;;;;;;;108721;1249;1002583;-80
2023/02/15 06:46:04;;;;;;;56.30;41.80;;;;;;;;;;109691;1249;59021;-81
2023/02/15 06:48:30;;;;;;;45.90;30.80;;;;;;;;;;109729;1249;59146;-81
2023/02/15 06:50:57;;;;;;;42.90;32.10;;;;;;;;;;109734;1249;62162;-80
2023/02/15 06:53:23;;;;;;;45.10;31.80;;;;;;;;;;109748;1250;58856;-80
2023/02/15 06:55:50;;;;;;;46.80;33.70;;;;;;;;;;109704;1249;59681;-80
2023/02/15 06:58:17;;;;;;;40.60;30.20;;;;;;;;;;109703;1250;58920;-80
2023/02/15 07:00:43;;;;;;;39.60;29.20;;;;;;;;;;109718;1249;59006;-77
2023/02/15 07:03:14;;;;;;;;;;;;;;;;;;109740;1249;61940;-76
2023/02/15 07:05:40;;;;;;;37.60;27.60;;;;;;;;;;109711;1249;58948;-79
2023/02/15 07:08:07;;;;;;;37.90;28.60;;;;;;;;;;109778;1250;59691;-80
2023/02/15 07:10:33;;;;;;;41.80;29.70;;;;;;;;;;109675;1249;58915;-80
2023/02/15 07:13:00;;;;;;;43.50;31.30;;;;;;;;;;109697;1250;59021;-80
2023/02/15 07:15:26;;;;;;;43.00;30.20;;;;;;;;;;109752;1250;62704;-81
2023/02/15 07:17:53;;;;;;;42.10;28.90;;;;;;;;;;109765;1250;59354;-80
2023/02/15 07:20:21;;;;;;;39.30;27.90;;;;;;;;;;109657;1249;59784;-80
2023/02/15 07:22:47;;;;;;;34.80;26.70;;;;;;;;;;109688;1250;58931;-80
2023/02/15 07:25:14;;;;;;;31.10;24.90;;;;;;;;;;109726;1249;58931;-80
2023/02/15 07:27:41;;;;;;;33.00;25.00;;;;;;;;;;109726;1250;63083;-80
2023/02/15 07:30:09;;;;;;;33.00;25.60;;;;;;;;;;109578;1251;58894;-80
2023/02/15 07:32:35;;;;;;;31.70;25.40;;;;;;;;;;109452;1249;59923;-79
2023/02/15 07:35:02;;;;;;;30.10;24.00;;;;;;;;;;109696;1249;59027;-80
2023/02/15 07:37:29;;;;;;;32.00;24.80;;;;;;;;;;109742;1250;58890;-81
2023/02/15 07:39:56;;;;;;;35.80;27.30;;;;;;;;;;109733;1250;60795;-79
2023/02/15 07:42:23;;;;;;;33.20;25.10;;;;;;;;;;109716;1249;58974;-80
2023/02/15 07:44:49;;;;;;;33.00;24.80;;;;;;;;;;109761;1249;60935;-79
2023/02/15 07:47:16;;;;;;;33.20;26.60;;;;;;;;;;109701;1249;58954;-81
2023/02/15 07:49:44;;;;;;;34.50;25.50;;;;;;;;;;109719;1250;59039;-80
2023/02/15 07:52:11;;;;;;;34.40;26.80;;;;;;;;;;109714;1250;62093;-80
2023/02/15 07:54:37;;;;;;;32.40;24.10;;;;;;;;;;109713;1250;58892;-78
2023/02/15 07:57:04;;;;;;;34.50;26.30;;;;;;;;;;109724;1250;59844;-81
2023/02/15 07:59:31;;;;;;;32.10;24.40;;;;;;;;;;109663;1249;58972;-79
2023/02/15 08:01:57;;;;;;;34.60;25.90;;;;;;;;;;109676;1249;59020;-79
2023/02/15 08:04:24;;;;;;;36.00;26.80;;;;;;;;;;109593;1250;144562;-80
2023/02/15 08:06:52;;;;;;;35.20;27.70;;;;;;;;;;109721;1250;59022;-80
2023/02/15 08:09:20;;;;;;;35.20;27.30;;;;;;;;;;109723;1250;60915;-80
2023/02/15 08:11:47;;;;;;;37.10;29.60;;;;;;;;;;109564;1249;59048;-80
2023/02/15 08:14:15;;;;;;;40.90;29.70;;;;;;;;;;109656;1250;58991;-79
2023/02/15 08:16:41;;;;;;;36.70;28.80;;;;;;;;;;109722;1249;61953;-79
2023/02/15 08:19:09;;;;;;;33.70;26.80;;;;;;;;;;109736;1249;59054;-80
2023/02/15 08:21:37;;;;;;;35.60;26.10;;;;;;;;;;109733;1250;60065;-80
2023/02/15 08:24:05;;;;;;;35.40;27.30;;;;;;;;;;109596;1249;59019;-80
2023/02/15 08:26:32;;;;;;;34.20;28.50;;;;;;;;;;109765;1249;59073;-80
2023/02/15 08:29:00;;;;;;;33.20;27.40;;;;;;;;;;109723;1250;62060;-80
2023/02/15 08:31:27;;;;;;;38.50;26.80;;;;;;;;;;109682;1250;58991;-80
2023/02/15 08:33:54;;;;;;;34.90;28.00;;;;;;;;;;109668;1249;60820;-80
2023/02/15 08:36:22;;;;;;;33.50;25.70;;;;;;;;;;108933;1249;1002503;-80
2023/02/15 08:38:48;;;;;;;31.60;24.10;;;;;;;;;;109723;1250;59034;-80
2023/02/15 08:41:17;;;;;;;31.50;25.10;;;;;;;;;;109728;1249;63107;-80
2023/02/15 08:43:43;;;;;;;32.20;24.90;;;;;;;;;;109702;1250;59018;-81
2023/02/15 08:46:11;;;;;;;33.50;26.60;;;;;;;;;;109689;1250;60999;-81
2023/02/15 08:48:38;;;;;;;28.90;23.70;;;;;;;;;;109687;1250;59714;-80
2023/02/15 08:51:06;;;;;;;31.40;24.50;;;;;;;;;;109697;1249;58980;-80
2023/02/15 08:53:33;;;;;;;33.30;26.50;;;;;;;;;;109751;1249;63248;-80
2023/02/15 08:55:59;;;;;;;28.50;23.20;;;;;;;;;;109719;1250;59081;-80
2023/02/15 08:58:26;;;;;;;27.00;22.80;;;;;;;;;;109724;1249;59911;-81
2023/02/15 09:00:53;;;;;;;25.80;21.30;;;;;;;;;;109667;1249;58971;-80
2023/02/15 09:03:19;;;;;;;29.00;23.20;;;;;;;;;;109743;1249;58890;-80
2023/02/15 09:05:46;;;;;;;27.80;22.40;;;;;;;;;;109716;1250;63068;-80
2023/02/15 09:08:12;;;;;;;27.50;23.40;;;;;;;;;;109718;1250;58931;-80
2023/02/15 09:10:39;;;;;;;30.30;23.60;;;;;;;;;;109487;1249;60087;-80
2023/02/15 09:13:06;;;;;;;31.90;24.70;;;;;;;;;;109703;1250;58991;-79
2023/02/15 09:15:32;;;;;;;29.50;25.00;;;;;;;;;;109700;1250;59022;-79
2023/02/15 09:18:02;;;;;;;31.10;25.50;;;;;;;;;;109727;1249;63075;-80
2023/02/15 09:20:29;;;;;;;30.30;24.00;;;;;;;;;;109479;1249;59076;-79
2023/02/15 09:22:55;;;;;;;31.20;25.30;;;;;;;;;;109680;1250;59848;-80
2023/02/15 09:25:22;;;;;;;34.00;25.60;;;;;;;;;;109382;1249;59042;-80
2023/02/15 09:27:48;;;;;;;82.30;52.00;;;;;;;;;;109666;1249;59040;-80
2023/02/15 09:30:15;;;;;;;42.90;33.30;;;;;;;;;;109717;1249;62118;-80
2023/02/15 09:32:42;;;;;;;33.20;27.40;;;;;;;;;;109727;1249;58972;-80
2023/02/15 09:35:08;;;;;;;32.80;24.20;;;;;;;;;;109696;1250;60827;-80
2023/02/15 09:37:35;;;;;;;30.70;25.80;;;;;;;;;;109700;1250;58963;-80
2023/02/15 09:40:02;;;;;;;30.30;24.40;;;;;;;;;;109528;1249;58991;-80
2023/02/15 09:42:52;;;;;;;27.10;22.80;;;;;;;;;;109721;1251;63375;-79
2023/02/15 09:45:19;;;;;;;;;;;;;;;;;;109750;1250;59354;-80
2023/02/15 09:47:48;;;;;;;30.30;22.80;;;;;;;;;;109701;1249;58972;-80
2023/02/15 09:50:34;;;;;;;33.60;25.10;;;;;;;;;;109625;1249;58914;-80
2023/02/15 09:53:05;;;;;;;31.70;24.90;;;;;;;;;;109406;1249;59084;-80
2023/02/15 09:55:31;;;;;;;;;;;;;;;;;;109743;1250;63142;-79
2023/02/15 09:57:58;;;;;;;30.10;24.70;;;;;;;;;;109734;1250;59046;-80
2023/02/15 10:00:45;;;;;;;30.70;24.60;;;;;;;;;;109656;1249;60006;-80
2023/02/15 10:03:21;;;;;;;29.40;24.50;;;;;;;;;;109090;1256;59052;-80
2023/02/15 10:05:54;;;;;;;28.30;23.20;;;;;;;;;;109114;1256;59082;-80
2023/02/15 10:08:23;;;;;;;28.50;23.70;;;;;;;;;;109118;1256;63112;-79
2023/02/15 10:14:11;;;;;;;29.30;22.20;;;;;;;;;;109128;1256;60068;-80
2023/02/15 10:16:51;;;;;;;26.50;21.90;;;;;;;;;;109108;1256;58996;-80
2023/02/15 10:19:18;;;;;;;;;;;;;;;;;;109125;1256;58994;-81
2023/02/15 10:21:56;;;;;;;30.00;23.20;;;;;;;;;;109137;1256;59876;-80
2023/02/15 10:24:41;;;;;;;27.30;22.00;;;;;;;;;;109008;1256;59017;-80
2023/02/15 10:27:12;;;;;;;26.20;23.30;;;;;;;;;;109144;1256;60811;-80
2023/02/15 10:29:42;;;;;;;25.70;21.00;;;;;;;;;;109113;1256;59072;-80
2023/02/15 10:32:11;;;;;;;28.10;22.70;;;;;;;;;;109101;1256;59077;-81
2023/02/15 10:34:39;;;;;;;61.20;36.30;;;;;;;;;;109091;1256;62965;-80
2023/02/15 10:37:08;;;;;;;31.10;23.60;;;;;;;;;;109080;1256;59226;-81
2023/02/15 10:39:43;;;;;;;28.60;22.60;;;;;;;;;;109144;1256;59888;-81
2023/02/15 10:42:38;;;;;;;29.80;25.50;;;;;;;;;;109689;1249;58986;-80
2023/02/15 10:45:05;;;;;;;27.00;21.60;;;;;;;;;;109131;1256;58958;-80
2023/02/15 10:47:50;;;;;;;27.10;22.20;;;;;;;;;;109091;1256;62010;-80
2023/02/15 10:50:17;;;;;;;28.00;23.10;;;;;;;;;;109144;1256;58970;-80
2023/02/15 10:53:03;;;;;;;27.30;22.30;;;;;;;;;;109110;1256;60984;-79
2023/02/15 10:55:35;;;;;;;23.70;20.50;;;;;;;;;;109003;1256;59461;-79
2023/02/15 10:58:02;;;;;;;25.20;21.90;;;;;;;;;;109120;1256;58976;-79
2023/02/15 11:00:31;;;;;;;27.00;21.10;;;;;;;;;;109115;1256;62705;-80
2023/02/15 11:03:08;;;;;;;28.10;23.70;;;;;;;;;;109166;1256;58943;-80
2023/02/15 11:05:48;;;;;;;26.50;21.30;;;;;;;;;;109113;1256;60597;-80
2023/02/15 11:08:15;;;;;;;27.70;21.80;;;;;;;;;;108997;1256;59093;-81
2023/02/15 11:10:46;;;;;;;27.10;21.80;;;;;;;;;;109125;1256;58931;-80
2023/02/15 11:13:17;;;;;;;24.40;21.80;;;;;;;;;;109105;1256;63109;-81
2023/02/15 11:15:43;;;;;;;24.90;20.20;;;;;;;;;;109088;1256;59096;-81
2023/02/15 11:18:15;;;;;;;26.60;20.90;;;;;;;;;;109056;1256;61016;-81
2023/02/15 11:41:55;;;;;;;25.50;20.70;;;;;;;7.88;100.00;100265.11;103441;1282;604247;-82
2023/02/15 11:44:27;;;;;;;24.70;19.80;;;;;;;7.96;100.00;100261.13;104817;1266;150778;-82
2023/02/15 11:46:54;;;;;;;21.40;17.50;;;;;;;7.96;100.00;100259.16;105029;1267;59286;-81
2023/02/15 11:49:33;;;;;;;22.30;19.90;;;;;;;7.98;100.00;100252.16;105146;1265;65267;-78
2023/02/15 11:52:06;;;;;;;21.10;17.90;;;;;;;7.96;100.00;100251.72;104754;1264;61402;-78
2023/02/15 11:54:40;;;;;;;23.80;18.50;;;;;;;7.96;100.00;100250.66;104938;1266;64685;-78
2023/02/15 11:57:31;;;;;;;24.00;18.80;;;;;;;7.97;100.00;100247.45;104914;1266;59360;-78
2023/02/15 12:00:07;;;;;;;25.00;18.00;;;;;;;7.96;100.00;100243.96;104948;1264;59363;-79
2023/02/15 12:02:38;;;;;;;23.30;19.00;;;;;;;7.97;100.00;100236.11;104862;1266;64250;-79
2023/02/15 12:05:19;;;;;;;;;;;;;;;7.98;100.00;100233.79;104985;1268;59828;-78
2023/02/15 12:07:52;;;;;;;21.40;17.70;;;;;;;7.96;100.00;100231.73;104932;1266;65728;-78
2023/02/15 12:10:24;;;;;;;21.60;18.50;;;;;;;7.96;100.00;100228.00;104930;1268;59659;-78
2023/02/15 12:13:13;;;;;;;23.00;19.20;;;;;;;8.01;100.00;100227.30;104939;1266;59725;-78
2023/02/15 12:16:11;;;;;;;21.10;18.80;;;;;;;8.02;100.00;100222.84;104986;1265;65826;-78
2023/02/15 12:18:41;;;;;;;21.10;18.60;;;;;;;8.03;100.00;100219.10;104668;1270;61946;-78
2023/02/15 12:21:14;;;;;;;23.90;20.00;;;;;;;8.02;100.00;100218.40;104512;1271;64961;-78
2023/02/15 12:23:54;;;;;;;21.80;18.20;;;;;;;8.04;100.00;100215.86;104558;1270;59674;-79
2023/02/15 12:26:29;;;;;;;22.10;19.10;;;;;;;8.04;100.00;100211.25;104469;1275;59457;-77
2023/02/15 12:29:01;;;;;;;21.60;19.20;;;;;;;8.01;100.00;100212.42;104544;1273;66080;-77
2023/02/15 12:31:37;;;;;;;23.80;19.60;;;;;;;7.99;100.00;100210.94;104597;1270;61738;-78
2023/02/15 12:34:11;;;;;;;24.30;18.70;;;;;;;8.00;100.00;100213.52;104563;1270;64671;-78
2023/02/15 12:36:50;;;;;;;24.60;20.30;;;;;;;8.05;100.00;100213.52;104490;1273;59705;-78
2023/02/15 12:39:20;;;;;;;22.70;19.40;;;;;;;8.11;100.00;100209.25;104551;1270;59750;-78
2023/02/15 12:41:55;;;;;;;25.10;19.90;;;;;;;8.18;100.00;100205.46;104751;1270;65064;-77
2023/02/15 12:44:25;;;;;;;22.20;18.70;;;;;;;8.21;100.00;100201.79;104724;1272;61432;-78
2023/02/15 12:47:10;;;;;;;23.00;18.80;;;;;;;8.18;100.00;100200.66;104594;1276;65814;-77
2023/02/15 12:49:37;;;;;;;21.60;18.10;;;;;;;8.23;100.00;100194.79;104492;1272;59782;-78
2023/02/15 12:52:20;;;;;;;21.80;18.40;;;;;;;8.29;100.00;100189.44;104309;1277;59660;-77
2023/02/15 12:54:47;;;;;;;25.50;18.40;;;;;;;8.32;100.00;100185.42;104444;1272;65024;-78
2023/02/15 12:57:13;;;;;;;21.50;17.40;;;;;;;8.34;100.00;100185.67;104648;1271;61774;-78
2023/02/15 13:00:24;;;;;;;21.90;17.90;;;;;;;8.36;100.00;100178.89;104930;1267;64661;-78
2023/02/15 13:02:52;;;;;;;;;;;;;;;8.32;100.00;100175.14;104924;1266;59582;-79
2023/02/15 13:05:24;;;;;;;22.70;17.50;;;;;;;8.32;100.00;100167.16;104970;1264;59770;-78
2023/02/15 13:07:56;;;;;;;24.10;18.40;;;;;;;8.37;100.00;100164.51;104965;1264;66225;-78
2023/02/15 13:10:41;;;;;;;24.30;18.80;;;;;;;8.40;100.00;100161.77;104942;1262;59850;-78
2023/02/15 13:13:21;;;;;;;23.00;18.30;;;;;;;8.41;100.00;100156.04;104861;1264;65848;-79
2023/02/15 13:15:52;;;;;;;20.90;17.50;;;;;;;8.41;100.00;100154.64;105077;1264;59850;-79
2023/02/15 13:18:36;;;;;;;25.10;18.50;;;;;;;8.41;100.00;100155.01;105120;1263;59619;-78
2023/02/15 13:21:16;;;;;;;23.60;18.60;;;;;;;8.43;100.00;100154.39;105219;1264;65327;-78
2023/02/15 13:23:48;;;;;;;20.00;17.60;;;;;;;8.46;100.00;100152.15;105284;1258;60734;-79
2023/02/15 13:26:23;;;;;;;24.10;17.30;;;;;;;8.49;100.00;100149.02;105232;1257;65148;-78
2023/02/15 13:28:56;;;;;;;21.80;17.20;;;;;;;8.50;100.00;100148.98;105280;1259;59622;-77
2023/02/15 13:31:27;;;;;;;22.10;18.40;;;;;;;8.49;100.00;100143.54;105339;1258;59826;-79
2023/02/15 13:34:03;;;;;;;18.80;16.30;;;;;;;8.50;100.00;100138.70;105305;1257;65421;-79
2023/02/15 13:36:41;;;;;;;23.60;19.30;;;;;;;8.53;100.00;100140.19;105356;1258;60673;-78
2023/02/15 13:39:25;;;;;;;21.30;16.60;;;;;;;8.54;100.00;100136.58;105394;1258;65784;-80
2023/02/15 13:41:55;;;;;;;21.50;17.80;;;;;;;8.54;100.00;100136.04;105228;1257;59669;-81
2023/02/15 13:44:33;;;;;;;22.00;18.10;;;;;;;8.55;100.00;100136.36;105207;1257;59810;-80
2023/02/15 13:47:00;;;;;;;23.10;18.70;;;;;;;8.55;100.00;100135.46;105337;1259;66122;-78
2023/02/15 13:49:35;;;;;;;23.20;18.70;;;;;;;8.55;100.00;100136.36;105323;1258;60704;-78
2023/02/15 13:52:19;;;;;;;21.80;18.40;;;;;;;8.55;100.00;100132.99;105152;1264;65719;-78
2023/02/15 13:54:58;;;;;;;22.50;17.90;;;;;;;8.54;100.00;100130.91;105093;1266;59683;-78
2023/02/15 13:57:41;;;;;;;21.80;18.00;;;;;;;8.54;100.00;100129.68;105295;1261;59693;-78
2023/02/15 14:00:08;;;;;;;21.10;17.20;;;;;;;8.53;100.00;100128.65;105301;1261;65924;-78
2023/02/15 14:03:03;;;;;;;24.60;18.90;;;;;;;8.53;100.00;100125.83;105301;1258;62091;-78
2023/02/15 14:05:30;;;;;;;21.80;18.40;;;;;;;8.53;100.00;100125.81;105287;1262;65697;-78
2023/02/15 14:08:07;;;;;;;27.00;19.50;;;;;;;8.52;100.00;100123.55;105053;1259;59757;-78
2023/02/15 14:11:08;;;;;;;23.10;19.20;;;;;;;8.50;100.00;100123.14;105476;1257;59770;-78
2023/02/15 14:14:02;;;;;;;24.10;20.30;;;;;;;8.45;100.00;100118.02;105446;1262;66251;-79
2023/02/15 14:17:03;;;;;;;23.70;19.50;;;;;;;8.42;100.00;100115.29;105466;1257;61534;-78
2023/02/15 14:19:41;;;;;;;24.80;18.40;;;;;;;8.42;100.00;100113.15;105336;1259;64834;-78
2023/02/15 14:23:02;;;;;;;22.80;19.60;;;;;;;8.41;100.00;100108.59;105418;1257;59670;-79
2023/02/15 14:25:43;;;;;;;27.10;20.20;;;;;;;8.39;100.00;100104.60;104965;1264;59760;-79
2023/02/15 14:28:39;;;;;;;26.20;20.00;;;;;;;8.37;100.00;100109.06;104934;1270;66120;-80
2023/02/15 14:31:09;;;;;;;23.90;18.90;;;;;;;8.35;100.00;100106.86;105135;1263;61850;-79